Time;durP1;ratioP1;P1;durP2;ratioP2;P2;SDS_P1;SDS_P2;PMS_P1;PMS_P2;Temp;Humidity;BMP_temperature;BMP_pressure;BME280_temperature;BME280_humidity;BME280_pressure;Samples;Min_cycle;Max_cycle;Signal;HPM_P1;HPM_P2
2021/07/01 00:01:58;;;;;;;13.10;5.07;;;;;;;13.63;88.38;99202.19;5031931;28;20053;-63
2021/07/01 00:04:23;;;;;;;12.85;5.70;;;;;;;13.68;87.67;99204.91;5033760;28;20026;-62
2021/07/01 00:06:49;;;;;;;9.55;5.72;;;;;;;13.69;87.73;99209.25;5033306;28;20114;-62
2021/07/01 00:09:15;;;;;;;9.35;5.28;;;;;;;13.66;86.51;99204.41;5033725;28;20033;-63
2021/07/01 00:11:44;;;;;;;10.07;5.47;;;;;;;13.66;86.23;99205.19;5019574;28;20040;-63
2021/07/01 00:14:11;;;;;;;16.33;6.05;;;;;;;13.66;87.28;99212.47;5013984;28;20022;-63
2021/07/01 00:16:36;;;;;;;12.27;6.15;;;;;;;13.66;87.59;99209.78;5026479;28;20033;-63
2021/07/01 00:19:02;;;;;;;13.68;5.80;;;;;;;13.63;87.03;99215.66;5033486;28;20502;-63
2021/07/01 00:21:28;;;;;;;12.13;5.95;;;;;;;13.61;86.85;99215.16;5033071;28;20116;-62
2021/07/01 00:23:53;;;;;;;13.90;5.78;;;;;;;13.64;87.04;99220.00;5033360;28;20025;-63
2021/07/01 00:26:19;;;;;;;17.58;6.03;;;;;;;13.55;87.27;99215.13;5032759;28;20033;-63
2021/07/01 00:28:44;;;;;;;9.85;5.78;;;;;;;13.56;86.02;99211.34;5033338;28;20026;-63
2021/07/01 00:31:10;;;;;;;8.40;5.32;;;;;;;13.53;85.80;99222.66;5032862;28;20030;-63
2021/07/01 00:33:35;;;;;;;10.88;5.20;;;;;;;13.47;86.06;99218.28;5033171;28;20034;-62
2021/07/01 00:36:00;;;;;;;10.00;5.05;;;;;;;13.57;85.86;99226.41;5023446;28;20093;-63
2021/07/01 00:38:26;;;;;;;14.45;5.97;;;;;;;13.53;87.14;99225.34;5013703;28;20033;-63
2021/07/01 00:40:51;;;;;;;9.95;5.35;;;;;;;13.54;86.25;99224.25;5020208;28;20223;-63
2021/07/01 00:43:17;;;;;;;14.73;5.72;;;;;;;13.51;86.98;99230.16;5033387;28;20391;-63
2021/07/01 00:45:42;;;;;;;8.23;4.80;;;;;;;13.46;85.89;99227.44;5032667;28;20045;-62
2021/07/01 00:48:08;;;;;;;11.50;4.45;;;;;;;13.38;86.25;99219.88;5032926;28;20535;-62
2021/07/01 00:50:33;;;;;;;13.88;5.30;;;;;;;13.41;86.37;99230.13;5032845;28;20037;-62
2021/07/01 00:52:58;;;;;;;12.75;5.10;;;;;;;13.42;86.26;99226.34;5033166;28;20468;-63
2021/07/01 00:55:24;;;;;;;8.63;4.80;;;;;;;13.37;86.79;99223.63;5029399;28;20069;-62
2021/07/01 00:57:49;;;;;;;10.65;4.60;;;;;;;13.35;86.71;99221.22;5012025;28;20025;-62
2021/07/01 01:00:43;;;;;;;8.85;5.00;;;;;;;13.30;86.55;99228.44;5013695;28;20469;-66
2021/07/01 01:03:00;;;;;;;10.80;5.90;;;;;;;13.33;85.65;99227.94;5032128;28;20041;-63
2021/07/01 01:05:26;;;;;;;13.38;6.35;;;;;;;13.33;86.71;99222.53;5032671;28;20045;-62
2021/07/01 01:07:51;;;;;;;11.30;5.80;;;;;;;13.37;85.89;99216.34;5031698;28;20041;-62
2021/07/01 01:10:17;;;;;;;15.75;6.05;;;;;;;13.31;86.42;99214.72;5031253;28;20036;-63
2021/07/01 01:12:42;;;;;;;12.23;6.30;;;;;;;13.29;86.88;99218.75;5031615;28;20037;-63
2021/07/01 01:15:08;;;;;;;15.18;6.40;;;;;;;13.15;87.27;99211.09;5031324;28;20025;-63
2021/07/01 01:17:34;;;;;;;13.10;6.70;;;;;;;13.20;86.40;99214.88;5032666;28;20392;-62
2021/07/01 01:19:59;;;;;;;15.77;7.00;;;;;;;13.20;86.90;99214.88;5032898;28;20025;-62
2021/07/01 01:22:25;;;;;;;19.20;8.27;;;;;;;13.20;86.08;99212.19;5032309;28;20048;-62
2021/07/01 01:24:50;;;;;;;14.68;7.78;;;;;;;13.11;85.57;99218.06;5032664;28;20021;-62
2021/07/01 01:27:16;;;;;;;17.42;8.00;;;;;;;13.16;85.38;99218.09;5032288;28;20041;-63
2021/07/01 01:29:43;;;;;;;14.70;8.75;;;;;;;13.06;85.18;99218.03;5031439;28;20026;-63
2021/07/01 01:32:08;;;;;;;14.93;7.18;;;;;;;13.03;84.96;99213.19;5032258;28;20045;-62
2021/07/01 01:34:34;;;;;;;15.77;7.32;;;;;;;13.10;85.16;99221.84;5032784;28;20033;-62
2021/07/01 01:36:59;;;;;;;17.00;6.28;;;;;;;13.16;83.47;99217.28;5031040;28;20042;-63
2021/07/01 01:39:24;;;;;;;13.63;6.30;;;;;;;13.17;83.20;99214.31;5034691;28;20026;-62
2021/07/01 01:41:50;;;;;;;10.73;6.05;;;;;;;13.22;83.13;99221.63;5021059;28;20480;-63
2021/07/01 01:44:15;;;;;;;19.65;7.13;;;;;;;13.25;82.79;99212.22;5016530;28;20037;-63
2021/07/01 01:46:41;;;;;;;8.27;5.28;;;;;;;13.09;83.03;99216.69;5029734;28;20033;-62
2021/07/01 01:49:07;;;;;;;10.45;5.68;;;;;;;13.04;83.64;99206.72;5036612;28;20028;-62
2021/07/01 01:51:33;;;;;;;12.32;5.95;;;;;;;13.06;83.24;99206.47;5035927;28;20041;-62
2021/07/01 01:53:59;;;;;;;10.10;5.85;;;;;;;13.06;83.23;99207.28;5036173;28;20399;-62
2021/07/01 01:56:24;;;;;;;10.93;5.68;;;;;;;13.19;82.73;99206.00;5024123;28;20030;-62
2021/07/01 01:58:50;;;;;;;11.48;6.03;;;;;;;13.10;83.15;99211.06;5015038;28;20523;-62
2021/07/01 02:01:15;;;;;;;10.10;5.97;;;;;;;13.17;83.70;99202.75;5025845;28;20052;-63
2021/07/01 02:03:41;;;;;;;12.40;5.50;;;;;;;13.23;82.88;99200.91;5036250;28;20037;-62
2021/07/01 02:06:07;;;;;;;10.50;5.47;;;;;;;13.17;83.91;99208.94;5035887;28;20381;-63
2021/07/01 02:08:33;;;;;;;9.88;5.32;;;;;;;13.09;84.51;99217.50;5036113;28;20129;-62
2021/07/01 02:10:58;;;;;;;7.80;4.90;;;;;;;13.15;84.45;99219.19;5027682;28;20100;-62
2021/07/01 02:13:24;;;;;;;11.15;5.18;;;;;;;13.11;83.94;99214.56;5016051;28;20029;-62
2021/07/01 02:15:49;;;;;;;15.20;6.63;;;;;;;13.19;84.02;99219.47;5022178;28;20037;-62
2021/07/01 02:18:14;;;;;;;8.95;5.13;;;;;;;13.18;83.89;99215.16;5034732;28;20041;-62
2021/07/01 02:20:40;;;;;;;11.20;5.10;;;;;;;13.03;84.54;99215.88;5035411;28;20033;-62
2021/07/01 02:23:05;;;;;;;13.65;5.18;;;;;;;13.04;85.49;99220.16;5035760;28;20430;-63
2021/07/01 02:25:32;;;;;;;11.95;5.15;;;;;;;12.95;84.40;99222.53;5034062;28;20041;-63
2021/07/01 02:27:57;;;;;;;8.02;4.40;;;;;;;12.99;83.69;99222.81;5035496;28;20082;-62
2021/07/01 02:30:23;;;;;;;7.85;4.63;;;;;;;13.00;83.52;99218.25;5035107;28;20033;-63
2021/07/01 02:32:48;;;;;;;13.80;4.40;;;;;;;12.95;83.41;99221.72;5034270;28;20030;-62
2021/07/01 02:35:14;;;;;;;14.18;4.32;;;;;;;12.98;84.07;99226.59;5033444;28;20030;-62
2021/07/01 02:37:39;;;;;;;13.27;4.35;;;;;;;12.96;83.73;99217.97;5015700;28;20022;-62
2021/07/01 02:40:06;;;;;;;11.00;4.13;;;;;;;12.92;83.92;99222.22;5014535;28;20022;-63
2021/07/01 02:42:31;;;;;;;10.27;4.18;;;;;;;12.89;83.91;99223.56;5035211;28;20021;-62
2021/07/01 02:44:57;;;;;;;8.48;3.60;;;;;;;12.93;82.80;99219.28;5034027;28;20465;-62
2021/07/01 02:47:22;;;;;;;9.18;3.63;;;;;;;12.86;83.71;99221.38;5034714;28;20037;-62
2021/07/01 02:49:47;;;;;;;7.90;3.45;;;;;;;12.84;82.95;99226.22;5035023;28;20476;-62
2021/07/01 02:52:13;;;;;;;6.07;2.47;;;;;;;12.90;82.52;99224.34;5034747;28;20064;-63
2021/07/01 02:54:38;;;;;;;12.85;3.13;;;;;;;12.91;83.06;99226.81;5035139;28;20025;-63
2021/07/01 02:57:04;;;;;;;5.28;3.15;;;;;;;12.93;83.63;99226.56;5017840;28;20400;-62
2021/07/01 02:59:29;;;;;;;4.10;2.65;;;;;;;12.88;83.33;99234.56;5015220;28;20559;-63
2021/07/01 03:01:55;;;;;;;4.47;2.55;;;;;;;12.88;83.14;99231.88;5029065;28;20060;-62
2021/07/01 03:04:20;;;;;;;4.82;2.85;;;;;;;12.87;83.42;99230.25;5034799;28;20026;-62
2021/07/01 03:06:46;;;;;;;8.10;3.22;;;;;;;12.85;83.20;99232.38;5034339;28;20029;-63
2021/07/01 03:09:11;;;;;;;5.85;2.72;;;;;;;12.87;82.92;99230.25;5034969;28;20018;-62
2021/07/01 03:11:37;;;;;;;11.00;3.03;;;;;;;12.90;82.80;99224.34;5034535;28;20427;-62
2021/07/01 03:14:03;;;;;;;7.43;2.70;;;;;;;12.83;83.21;99224.59;5034627;28;20479;-62
2021/07/01 03:16:28;;;;;;;3.90;2.35;;;;;;;12.86;82.89;99228.66;5034435;28;20555;-62
2021/07/01 03:18:54;;;;;;;6.30;2.70;;;;;;;12.89;82.84;99228.13;5034610;28;20397;-62
2021/07/01 03:21:20;;;;;;;5.43;2.50;;;;;;;12.80;82.99;99233.16;5022149;28;20038;-62
2021/07/01 03:23:45;;;;;;;4.43;2.33;;;;;;;12.82;83.16;99238.28;5014763;28;20026;-62
2021/07/01 03:26:12;;;;;;;4.65;2.35;;;;;;;12.81;82.75;99231.31;5014279;28;20042;-63
2021/07/01 03:28:37;;;;;;;4.90;2.45;;;;;;;12.79;82.99;99226.16;5014586;28;20021;-62
2021/07/01 03:31:05;;;;;;;3.97;2.45;;;;;;;12.71;83.08;99227.44;5022989;28;20148;-62
2021/07/01 03:33:31;;;;;;;3.60;2.05;;;;;;;12.76;82.74;99225.88;5033337;28;20078;-62
2021/07/01 03:35:57;;;;;;;7.72;2.40;;;;;;;12.79;83.56;99222.66;5033759;28;20041;-62
2021/07/01 03:38:22;;;;;;;7.47;2.03;;;;;;;12.68;84.15;99227.97;5034194;28;20030;-62
2021/07/01 03:40:48;;;;;;;4.10;2.28;;;;;;;12.66;84.47;99230.09;5033946;28;20038;-62
2021/07/01 03:43:13;;;;;;;6.32;2.50;;;;;;;12.67;84.30;99233.59;5034196;28;20472;-62
2021/07/01 03:45:39;;;;;;;4.85;2.00;;;;;;;12.70;84.10;99231.22;5028768;28;20046;-62
2021/07/01 03:48:04;;;;;;;11.32;2.28;;;;;;;12.77;83.78;99235.56;5014124;28;20026;-62
2021/07/01 03:50:30;;;;;;;7.28;2.10;;;;;;;12.77;82.95;99235.56;5017925;28;20132;-62
2021/07/01 03:52:55;;;;;;;6.20;1.90;;;;;;;12.87;83.00;99235.63;5034093;28;20079;-62
2021/07/01 03:55:21;;;;;;;6.70;2.30;;;;;;;12.84;83.68;99238.84;5030872;28;20096;-62
2021/07/01 03:57:46;;;;;;;9.35;2.40;;;;;;;12.80;83.70;99240.41;5014166;28;20030;-62
2021/07/01 04:00:12;;;;;;;4.93;2.00;;;;;;;12.84;83.64;99242.34;5015308;28;20381;-63
2021/07/01 04:02:38;;;;;;;5.15;1.92;;;;;;;12.81;83.93;99234.00;5033185;28;20045;-62
2021/07/01 04:05:04;;;;;;;3.42;1.95;;;;;;;12.83;83.83;99239.91;5033092;28;20526;-62
2021/07/01 04:07:30;;;;;;;2.95;1.73;;;;;;;12.84;83.70;99236.97;5033908;28;20095;-62
2021/07/01 04:09:55;;;;;;;5.05;1.70;;;;;;;12.91;83.56;99237.56;5033765;28;20025;-62
2021/07/01 04:12:21;;;;;;;8.52;1.80;;;;;;;12.86;83.61;99244.78;5031895;28;20041;-62
2021/07/01 04:14:46;;;;;;;4.78;1.70;;;;;;;12.90;83.84;99237.81;5033818;28;20026;-62
2021/07/01 04:17:11;;;;;;;5.63;1.90;;;;;;;12.81;84.08;99245.56;5033133;28;20045;-62
2021/07/01 04:19:37;;;;;;;4.82;1.70;;;;;;;12.84;84.12;99247.72;5033495;28;20365;-62
2021/07/01 04:22:03;;;;;;;5.05;1.63;;;;;;;12.87;83.75;99249.09;5031888;28;20042;-62
2021/07/01 04:24:28;;;;;;;2.42;1.50;;;;;;;12.82;85.15;99249.03;5033477;28;20022;-61
2021/07/01 04:26:54;;;;;;;4.25;1.50;;;;;;;12.79;84.67;99245.00;5032942;28;20045;-62
2021/07/01 04:29:20;;;;;;;8.15;1.60;;;;;;;12.83;84.40;99250.66;5033598;28;20021;-62
2021/07/01 04:31:45;;;;;;;5.50;1.70;;;;;;;12.79;85.14;99249.56;5033085;28;20125;-61
2021/07/01 04:34:11;;;;;;;5.53;1.77;;;;;;;12.81;85.17;99258.19;5033627;28;20101;-62
2021/07/01 04:36:36;;;;;;;6.85;1.80;;;;;;;12.83;84.60;99250.66;5032891;28;20045;-62
2021/07/01 04:39:02;;;;;;;8.23;2.00;;;;;;;12.79;86.05;99241.50;5033640;28;20040;-62
2021/07/01 04:41:28;;;;;;;12.00;1.90;;;;;;;12.77;85.37;99240.94;5020748;28;20034;-62
2021/07/01 04:43:53;;;;;;;7.05;1.77;;;;;;;12.83;85.83;99246.13;5012323;28;20034;-62
2021/07/01 04:46:19;;;;;;;5.82;1.90;;;;;;;12.82;85.47;99247.16;5023766;28;20044;-62
2021/07/01 04:48:44;;;;;;;2.95;1.50;;;;;;;12.70;86.58;99249.22;5033193;28;20042;-62
2021/07/01 04:51:10;;;;;;;2.42;1.38;;;;;;;12.60;85.88;99244.53;5032599;28;20042;-62
2021/07/01 04:53:35;;;;;;;4.45;1.70;;;;;;;12.66;85.58;99251.63;5033013;28;20028;-62
2021/07/01 04:56:01;;;;;;;5.50;1.85;;;;;;;12.66;85.53;99250.81;5032439;28;20045;-62
2021/07/01 04:58:26;;;;;;;2.05;1.63;;;;;;;12.71;84.81;99254.34;5032986;28;20026;-62
2021/07/01 05:00:52;;;;;;;2.80;1.85;;;;;;;12.99;85.03;99252.41;5032509;28;20038;-63
2021/07/01 05:03:17;;;;;;;4.05;1.92;;;;;;;12.97;85.90;99256.44;5032873;28;20032;-61
2021/07/01 05:05:43;;;;;;;4.60;1.75;;;;;;;12.83;86.29;99256.03;5032518;28;20038;-61
2021/07/01 05:08:08;;;;;;;3.90;1.70;;;;;;;12.84;85.82;99255.00;5032863;28;20030;-61
2021/07/01 05:10:34;;;;;;;7.22;1.77;;;;;;;12.92;86.84;99259.88;5028005;28;20034;-62
2021/07/01 05:13:00;;;;;;;2.78;1.48;;;;;;;12.95;85.26;99259.38;5012145;28;20033;-61
2021/07/01 05:15:25;;;;;;;3.00;1.40;;;;;;;12.98;85.78;99264.25;5018607;28;20033;-61
2021/07/01 05:17:51;;;;;;;2.22;1.88;;;;;;;12.98;84.77;99258.03;5036883;28;20048;-61
2021/07/01 05:20:16;;;;;;;2.50;1.60;;;;;;;12.92;85.58;99262.56;5036466;28;20022;-63
2021/07/01 05:22:41;;;;;;;1.58;1.30;;;;;;;12.95;85.47;99256.69;5036765;28;20036;-63
2021/07/01 05:25:07;;;;;;;2.75;1.20;;;;;;;12.94;84.74;99265.81;5036342;28;20028;-63
2021/07/01 05:27:33;;;;;;;4.03;1.30;;;;;;;12.86;85.58;99269.00;5036506;28;20393;-63
2021/07/01 05:29:58;;;;;;;5.05;1.50;;;;;;;12.81;85.44;99274.34;5037088;28;20026;-63
2021/07/01 05:32:24;;;;;;;1.10;1.00;;;;;;;12.84;85.00;99273.81;5016706;28;20041;-62
2021/07/01 05:34:49;;;;;;;1.70;1.08;;;;;;;12.88;84.92;99274.91;5016808;28;20464;-62
2021/07/01 05:37:15;;;;;;;3.25;1.23;;;;;;;12.85;85.38;99275.44;5034710;28;20041;-62
2021/07/01 05:39:41;;;;;;;1.02;0.90;;;;;;;12.88;85.14;99269.53;5036502;28;20025;-62
2021/07/01 05:42:06;;;;;;;1.88;1.10;;;;;;;12.87;85.87;99267.91;5035674;28;20041;-62
2021/07/01 05:44:32;;;;;;;1.15;1.05;;;;;;;12.97;85.33;99275.25;5036645;28;20017;-62
2021/07/01 05:46:57;;;;;;;2.53;1.35;;;;;;;13.02;84.38;99270.72;5035959;28;20030;-62
2021/07/01 05:49:22;;;;;;;3.30;1.27;;;;;;;13.04;84.72;99265.91;5036360;28;20383;-62
2021/07/01 05:51:51;;;;;;;1.83;1.40;;;;;;;13.12;84.13;99265.41;5021169;28;20041;-62
2021/07/01 05:54:24;;;;;;;2.40;1.42;;;;;;;13.22;83.78;99269.25;5016598;28;20385;-62
2021/07/01 05:56:50;;;;;;;2.60;1.40;;;;;;;13.22;84.17;99269.25;5031259;28;20094;-62
2021/07/01 05:59:15;;;;;;;2.63;1.38;;;;;;;13.17;83.91;99273.53;5036460;28;20029;-62
2021/07/01 06:01:41;;;;;;;3.38;1.70;;;;;;;13.24;83.86;99261.75;5035755;28;20042;-62
2021/07/01 06:04:07;;;;;;;2.30;1.70;;;;;;;13.26;82.65;99265.00;5036243;28;20029;-62
2021/07/01 06:06:36;;;;;;;4.03;1.70;;;;;;;13.46;81.99;99262.47;5035658;28;20203;-62
2021/07/01 06:09:05;;;;;;;3.00;1.30;;;;;;;13.67;81.13;99266.06;5035997;28;20057;-62
2021/07/01 06:11:35;;;;;;;4.90;1.83;;;;;;;13.77;81.20;99265.31;5035737;28;20073;-62
2021/07/01 06:14:01;;;;;;;2.47;1.40;;;;;;;13.92;80.40;99269.94;5034919;28;20101;-62
2021/07/01 06:16:26;;;;;;;2.30;1.35;;;;;;;13.80;81.11;99267.47;5034082;28;20049;-62
2021/07/01 06:18:52;;;;;;;2.85;1.40;;;;;;;13.79;81.31;99269.34;5034479;28;20037;-62
2021/07/01 06:21:17;;;;;;;5.38;1.40;;;;;;;13.77;80.64;99271.50;5034311;28;20083;-62
2021/07/01 06:23:43;;;;;;;2.65;1.45;;;;;;;13.84;81.04;99271.25;5035606;28;20021;-62
2021/07/01 06:26:09;;;;;;;3.20;1.45;;;;;;;13.70;81.61;99270.09;5013713;28;20038;-62
2021/07/01 06:28:44;;;;;;;7.80;3.25;;;;;;;13.85;82.01;99275.56;5015933;28;20050;-62
2021/07/01 06:31:10;;;;;;;6.07;1.80;;;;;;;13.95;80.85;99272.94;5015522;28;20504;-62
2021/07/01 06:33:39;;;;;;;5.10;1.60;;;;;;;14.32;80.05;99282.75;5015809;28;20018;-62
2021/07/01 06:36:04;;;;;;;4.63;1.73;;;;;;;14.44;80.52;99282.50;5015306;28;20061;-62
2021/07/01 06:38:29;;;;;;;3.00;1.40;;;;;;;14.23;80.78;99284.34;5014738;28;20028;-62
2021/07/01 06:40:55;;;;;;;7.80;1.63;;;;;;;14.31;80.55;99286.53;5014129;28;20034;-61
2021/07/01 06:43:21;;;;;;;3.40;1.42;;;;;;;14.39;80.05;99283.31;5014334;28;20469;-61
2021/07/01 06:45:48;;;;;;;7.10;1.63;;;;;;;14.32;80.19;99285.44;5020159;28;20041;-62
2021/07/01 06:48:13;;;;;;;4.93;1.45;;;;;;;14.22;80.35;99288.09;5035269;28;20108;-62
2021/07/01 06:50:39;;;;;;;4.05;1.58;;;;;;;14.12;80.66;99293.47;5033487;28;20037;-62
2021/07/01 06:53:04;;;;;;;2.60;1.40;;;;;;;13.91;81.40;99287.19;5035104;28;20029;-62
2021/07/01 06:55:30;;;;;;;4.07;1.73;;;;;;;14.12;80.40;99294.28;5013012;28;20057;-62
2021/07/01 06:57:56;;;;;;;1.77;1.40;;;;;;;14.11;81.29;99292.66;5015444;28;20049;-62
2021/07/01 07:00:22;;;;;;;3.88;1.58;;;;;;;14.09;80.93;99297.50;5000355;28;20460;-62
2021/07/01 07:02:47;;;;;;;4.25;1.50;;;;;;;14.15;81.17;99299.16;5017210;28;20048;-62
2021/07/01 07:05:14;;;;;;;9.00;1.73;;;;;;;14.26;80.67;99299.19;5034614;28;20100;-62
2021/07/01 07:07:40;;;;;;;3.00;1.75;;;;;;;14.51;79.85;99307.34;5033919;28;20391;-62
2021/07/01 07:10:06;;;;;;;4.28;2.45;;;;;;;14.22;79.67;99309.69;5034509;28;20479;-62
2021/07/01 07:12:36;;;;;;;4.75;1.65;;;;;;;14.33;79.27;99313.25;5035052;28;20029;-63
2021/07/01 07:15:02;;;;;;;4.35;2.20;;;;;;;14.15;81.11;99311.81;5034524;28;20553;-61
2021/07/01 07:17:28;;;;;;;3.88;2.70;;;;;;;13.89;82.17;99314.38;5034822;28;20037;-62
2021/07/01 07:19:57;;;;;;;5.05;3.00;;;;;;;13.82;82.90;99320.00;5034634;28;20029;-62
2021/07/01 07:22:24;;;;;;;5.75;3.03;;;;;;;13.51;83.63;99313.63;5033043;28;20041;-62
2021/07/01 07:24:51;;;;;;;8.52;3.13;;;;;;;13.58;83.73;99321.50;5034640;28;20032;-62
2021/07/01 07:27:16;;;;;;;6.50;3.42;;;;;;;13.43;84.13;99332.16;5032910;28;20076;-62
2021/07/01 07:29:42;;;;;;;7.50;3.50;;;;;;;13.66;82.42;99330.97;5033240;28;20026;-63
2021/07/01 07:32:08;;;;;;;8.98;3.30;;;;;;;13.85;81.29;99326.75;5032956;28;20100;-63
2021/07/01 07:34:33;;;;;;;12.85;3.88;;;;;;;13.36;83.91;99335.06;5033122;28;20463;-63
2021/07/01 07:36:59;;;;;;;6.55;3.58;;;;;;;13.79;82.85;99335.88;5033164;28;20057;-61
2021/07/01 07:39:25;;;;;;;18.77;4.13;;;;;;;13.62;81.90;99336.06;5033950;28;20099;-62
2021/07/01 07:41:50;;;;;;;12.82;3.95;;;;;;;13.56;83.65;99339.78;5018959;28;20034;-62
2021/07/01 07:44:16;;;;;;;10.40;4.45;;;;;;;14.10;81.03;99327.94;5014535;28;20473;-61
2021/07/01 07:46:41;;;;;;;11.02;5.45;;;;;;;14.25;80.18;99330.72;5010258;28;20029;-62
2021/07/01 07:49:07;;;;;;;14.70;4.97;;;;;;;14.57;80.02;99332.47;5033956;28;20387;-62
2021/07/01 07:51:33;;;;;;;14.20;6.97;;;;;;;14.74;73.71;99341.13;5033843;28;20091;-62
2021/07/01 07:54:03;;;;;;;15.32;7.43;;;;;;;15.24;72.18;99331.47;5034189;28;20036;-62
2021/07/01 07:56:36;;;;;;;14.35;7.00;;;;;;;15.81;71.99;99334.13;5032297;28;20076;-62
2021/07/01 07:59:02;;;;;;;13.45;6.88;;;;;;;15.76;69.95;99331.44;5032737;28;20098;-62
2021/07/01 08:01:29;;;;;;;21.95;8.70;;;;;;;15.19;70.45;99331.47;5021437;28;20050;-62
2021/07/01 08:03:55;;;;;;;16.83;8.65;;;;;;;15.38;70.57;99331.72;5013070;28;20049;-62
2021/07/01 08:06:22;;;;;;;15.95;9.07;;;;;;;15.26;69.72;99328.50;4996153;28;20480;-62
2021/07/01 08:08:47;;;;;;;26.05;9.15;;;;;;;15.63;68.06;99333.59;5014282;28;20026;-64
2021/07/01 08:11:13;;;;;;;14.32;7.82;;;;;;;16.06;67.06;99336.75;5012412;28;20038;-61
2021/07/01 08:13:40;;;;;;;16.13;8.35;;;;;;;15.87;66.70;99333.00;5013963;28;20030;-62
2021/07/01 08:16:05;;;;;;;27.13;8.85;;;;;;;16.18;67.14;99329.13;5022218;28;20038;-62
2021/07/01 08:18:38;;;;;;;17.20;7.93;;;;;;;16.24;67.52;99331.81;5033783;28;20022;-62
2021/07/01 08:21:08;;;;;;;15.50;8.43;;;;;;;16.39;66.04;99335.25;5024394;28;20488;-62
2021/07/01 08:23:34;;;;;;;14.30;7.80;;;;;;;16.43;66.66;99330.09;5012798;28;20026;-61
2021/07/01 08:26:01;;;;;;;19.90;9.02;;;;;;;16.37;65.52;99339.31;5021336;28;20492;-63
2021/07/01 08:28:27;;;;;;;15.15;8.35;;;;;;;16.26;65.81;99335.06;5033258;28;20033;-63
2021/07/01 08:30:53;;;;;;;16.27;8.80;;;;;;;15.88;67.77;99346.25;5033024;28;20053;-63
2021/07/01 08:33:20;;;;;;;16.48;9.20;;;;;;;15.65;67.34;99336.84;5032163;28;20468;-63
2021/07/01 08:35:49;;;;;;;34.13;10.43;;;;;;;15.67;66.09;99342.75;5033034;28;20539;-63
2021/07/01 08:38:14;;;;;;;15.60;9.00;;;;;;;15.69;66.10;99346.03;5033386;28;20064;-64
2021/07/01 08:40:39;;;;;;;16.85;9.50;;;;;;;15.88;65.58;99356.28;5027598;28;20042;-64
2021/07/01 08:43:05;;;;;;;22.25;9.70;;;;;;;15.73;66.03;99349.81;5012221;28;20465;-63
2021/07/01 08:45:50;;;;;;;20.50;9.35;;;;;;;16.01;64.86;99349.47;5017317;28;20045;-63
2021/07/01 08:48:23;;;;;;;15.93;9.13;;;;;;;16.37;64.65;99348.25;5031913;28;20052;-62
2021/07/01 08:50:54;;;;;;;18.08;9.73;;;;;;;16.60;64.87;99357.59;5032922;28;20446;-62
2021/07/01 08:53:43;;;;;;;21.27;8.98;;;;;;;17.16;61.32;99347.53;5033171;28;20100;-62
2021/07/01 08:56:10;;;;;;;15.03;8.10;;;;;;;17.05;61.96;99344.09;5017246;28;20033;-62
2021/07/01 08:58:35;;;;;;;19.20;8.65;;;;;;;17.27;61.76;99338.22;5032974;28;20764;-62
2021/07/01 09:01:01;;;;;;;14.45;7.90;;;;;;;17.51;61.12;99348.31;5014725;28;20052;-61
2021/07/01 09:03:28;;;;;;;12.43;7.68;;;;;;;17.77;59.47;99347.00;5031915;28;20018;-62
2021/07/01 09:05:53;;;;;;;14.25;7.47;;;;;;;17.60;59.57;99344.72;5032574;28;20044;-62
2021/07/01 09:08:19;;;;;;;16.00;8.10;;;;;;;17.94;59.85;99345.75;5015255;28;20030;-62
2021/07/01 09:10:51;;;;;;;15.35;7.38;;;;;;;17.89;58.81;99352.03;5014855;28;20042;-62
2021/07/01 09:13:19;;;;;;;15.65;7.50;;;;;;;17.73;60.94;99351.34;5032887;28;20495;-62
2021/07/01 09:15:45;;;;;;;15.70;7.85;;;;;;;17.89;59.76;99349.31;5025278;28;20124;-62
2021/07/01 09:18:10;;;;;;;16.50;7.20;;;;;;;17.84;60.02;99355.59;5012024;28;20473;-62
2021/07/01 09:20:39;;;;;;;19.13;7.30;;;;;;;17.88;60.52;99351.22;4999513;28;20045;-62
2021/07/01 09:23:06;;;;;;;10.15;6.57;;;;;;;17.09;62.00;99357.88;5033043;28;20120;-62
2021/07/01 09:25:31;;;;;;;12.07;6.97;;;;;;;17.33;60.96;99347.13;5028335;28;20045;-62
2021/07/01 09:27:57;;;;;;;16.23;6.55;;;;;;;17.41;60.30;99350.03;5011800;28;20022;-62
2021/07/01 09:30:27;;;;;;;13.45;6.75;;;;;;;17.57;61.04;99352.59;5015570;28;20103;-61
2021/07/01 09:32:57;;;;;;;15.65;7.15;;;;;;;17.30;61.50;99348.50;5031697;28;20468;-63
2021/07/01 09:35:25;;;;;;;15.10;6.30;;;;;;;17.07;61.53;99349.22;5014409;28;20045;-62
2021/07/01 09:37:50;;;;;;;14.85;6.50;;;;;;;16.89;61.80;99358.81;5032699;28;20075;-62
2021/07/01 09:40:20;;;;;;;12.95;5.90;;;;;;;16.87;62.84;99348.25;5014775;28;20026;-64
2021/07/01 09:42:53;;;;;;;13.20;6.07;;;;;;;16.73;62.31;99355.38;5032674;28;20040;-63
2021/07/01 09:45:20;;;;;;;11.63;6.68;;;;;;;17.18;62.13;99356.19;5031042;28;20036;-62
2021/07/01 09:47:46;;;;;;;11.68;6.35;;;;;;;16.79;64.12;99354.28;5031272;28;20033;-63
2021/07/01 09:50:12;;;;;;;12.55;6.30;;;;;;;17.08;63.12;99361.69;5009343;28;20256;-63
2021/07/01 09:52:42;;;;;;;10.85;5.35;;;;;;;17.92;59.66;99353.34;4993316;28;20119;-63
2021/07/01 09:55:08;;;;;;;10.63;5.65;;;;;;;18.10;58.85;99358.03;4992729;28;20026;-63
2021/07/01 09:57:45;;;;;;;10.70;5.15;;;;;;;17.89;58.19;99360.97;5008221;28;20434;-63
2021/07/01 10:00:12;;;;;;;7.25;4.10;;;;;;;17.77;58.41;99357.81;4995552;28;20026;-63
2021/07/01 10:02:37;;;;;;;10.40;4.50;;;;;;;17.99;58.34;99361.94;5016180;28;20092;-63
2021/07/01 10:05:28;;;;;;;8.70;4.65;;;;;;;18.05;57.51;99360.81;5016025;28;20092;-62
2021/07/01 10:07:54;;;;;;;9.35;4.47;;;;;;;17.91;58.37;99368.00;4996728;28;20423;-63
2021/07/01 10:10:20;;;;;;;6.45;3.78;;;;;;;17.98;57.99;99369.28;4995073;28;20548;-63
2021/07/01 10:12:50;;;;;;;7.57;4.15;;;;;;;18.33;57.68;99365.34;4996511;28;20100;-62
2021/07/01 10:15:31;;;;;;;7.43;4.30;;;;;;;18.30;58.33;99365.13;4996037;28;20141;-63
2021/07/01 10:18:19;;;;;;;6.15;3.78;;;;;;;18.21;57.97;99366.88;4996679;28;20030;-63
2021/07/01 10:20:46;;;;;;;7.13;4.03;;;;;;;17.94;57.91;99373.66;5002047;28;20404;-63
2021/07/01 10:23:33;;;;;;;6.22;3.70;;;;;;;17.92;57.52;99373.13;5015920;28;20028;-63
2021/07/01 10:26:10;;;;;;;10.23;4.43;;;;;;;18.14;59.15;99371.81;5039607;28;20046;-63
2021/07/01 10:28:36;;;;;;;5.28;3.22;;;;;;;18.17;57.74;99368.53;4996384;28;20433;-63
2021/07/01 10:31:02;;;;;;;6.10;3.75;;;;;;;18.36;57.90;99374.00;4995957;28;20046;-63
2021/07/01 10:33:28;;;;;;;6.28;3.65;;;;;;;18.18;57.98;99372.88;4996047;28;20026;-63
2021/07/01 10:35:59;;;;;;;8.68;3.78;;;;;;;18.57;57.25;99375.38;4995692;28;20046;-63
2021/07/01 10:38:24;;;;;;;5.20;3.30;;;;;;;18.37;56.16;99370.19;4996002;28;20193;-63
2021/07/01 10:40:51;;;;;;;5.05;3.20;;;;;;;18.64;55.76;99364.94;4994147;28;20401;-62
2021/07/01 10:43:17;;;;;;;5.30;3.50;;;;;;;18.85;54.17;99367.44;4995974;28;20524;-62
2021/07/01 10:45:56;;;;;;;8.18;3.50;;;;;;;18.80;54.33;99372.94;4995626;28;20408;-62
2021/07/01 10:48:22;;;;;;;5.63;3.28;;;;;;;18.85;54.25;99370.16;4995851;28;20034;-62
2021/07/01 10:50:48;;;;;;;8.38;3.70;;;;;;;17.98;56.99;99363.06;4995606;28;20046;-64
2021/07/01 10:53:31;;;;;;;8.20;3.97;;;;;;;17.69;56.55;99378.22;4995864;28;20497;-63
2021/07/01 10:56:26;;;;;;;7.15;4.38;;;;;;;17.38;57.56;99374.16;4995569;28;20050;-63
2021/07/01 10:58:55;;;;;;;7.40;4.45;;;;;;;17.16;59.96;99369.19;4995013;28;20101;-62
2021/07/01 11:01:24;;;;;;;10.95;4.95;;;;;;;16.87;60.72;99372.63;4994954;28;20047;-62
2021/07/01 11:04:19;;;;;;;8.87;4.70;;;;;;;16.66;61.43;99371.91;4995747;28;20113;-62
2021/07/01 11:06:59;;;;;;;11.05;5.13;;;;;;;16.81;61.16;99374.56;5004830;28;20042;-62
2021/07/01 11:09:24;;;;;;;9.65;4.90;;;;;;;17.00;61.04;99372.00;4995747;28;20038;-62
2021/07/01 11:12:00;;;;;;;11.25;4.97;;;;;;;16.73;62.99;99377.84;5009778;28;20057;-62
2021/07/01 11:14:25;;;;;;;10.82;4.78;;;;;;;17.58;58.43;99381.31;5015016;28;20468;-62
2021/07/01 11:16:51;;;;;;;22.67;5.72;;;;;;;17.72;57.63;99384.97;5013288;28;20033;-62
2021/07/01 11:19:17;;;;;;;12.60;4.95;;;;;;;18.13;58.05;99373.75;5014854;28;20053;-62
2021/07/01 11:21:46;;;;;;;12.98;4.82;;;;;;;17.87;56.98;99362.34;5000795;28;20050;-62
2021/07/01 11:24:13;;;;;;;35.97;8.02;;;;;;;18.21;56.73;99372.28;4995464;28;20034;-62
2021/07/01 11:26:38;;;;;;;18.80;5.90;;;;;;;18.45;55.61;99370.38;4995029;28;20126;-63
2021/07/01 11:29:07;;;;;;;24.85;7.00;;;;;;;18.15;55.95;99374.25;5000108;28;20442;-62